Annandale, MN

1:20 AM CDT on May 24, 2015 (GMT -0500)
Saint Cloud Regional | | Change Station
CLOSE
Current Station
Airport
Location: St. Cloud,
Elevation: 1024 ft
Nearby Weather Stations

Elev 1024 ft 45.55 °N, 94.06 °W | Updated 27 minutes ago

Overcast
Overcast
59 °F
Feels Like 59 °F
N
4
Wind Variable Wind from East

Today
High -- | Low -- °F
--% Chance of Precip.
Yesterday
High -- | Low -- °F
Precip. -- in
5:37 AM 8:49 PM
Waxing Crescent, 36% visible
Pressure 30.14 in
Visibility 10.0 miles
Clouds Scattered Clouds 6500 ft
Mostly Cloudy 8500 ft
Overcast 11000 ft
Dew Point 47 °F
Humidity 64%
Rainfall 0.00 in
Snow Depth Not available.
UV 0 out of 12
Pollen 7.40 out of 12
Air Quality Not available.
Flu Activity Sporadic
METAR KSTC 240553Z AUTO 08003KT 10SM SCT065 BKN085 OVC110 15/08 A3012 RMK AO2 SLP207 60000 T01500083 10189 20150 402000050 58004

More Conditions Fewer Conditions

Pressure 30.14 in
Visibility 10.0 miles
Clouds Scattered Clouds 6500 ft
Mostly Cloudy 8500 ft
Overcast 11000 ft
Dew Point 47 °F
Humidity 64%
Rainfall 0.00 in
Snow Depth Not available.
UV 0 out of 12
Pollen 7.40 out of 12
Air Quality Not available.
Flu Activity Sporadic
METAR KSTC 240553Z AUTO 08003KT 10SM SCT065 BKN085 OVC110 15/08 A3012 RMK AO2 SLP207 60000 T01500083 10189 20150 402000050 58004

More Conditions Fewer Conditions

10-Day Weather Forecast

Almanac

Astronomy

May. 24, 2015 Rise Set
Actual Time
Civil Twilight
Nautical Twilight
Astronomical Twilight
Moon
Length of Visible Light
Length of Day
Tomorrow will be .
, % of the Moon is Illuminated

Today's Extremes

State Highs State Lows

Community

WunderPhotos

Upload Photos

1,823,694 photos uploaded!

WunderBlogs® & News

Nearby

Air Quality

  Air Quality AQ Index Pollutant
Not available.

Snow Depth

Station Depth Elevation

Earthquake Activity

City Distance Mag. Time & Date
Minimum magnitude displayed is 2.5.

Coastal Water Temperatures

Place Temperature

Stations

Nearby Weather Stations

Station Location Temp. Windchill Dew Point Humidity Wind Precip. Elev Updated Type